createdAt,value
2017-11-19T00:02:12.812Z,11.30
2017-11-19T00:04:45.525Z,12.83
2017-11-19T00:07:14.546Z,12.53
2017-11-19T00:09:48.310Z,11.05
2017-11-19T00:12:17.325Z,13.43
2017-11-19T00:14:46.456Z,12.07
2017-11-19T00:17:15.614Z,10.33
2017-11-19T00:19:44.713Z,12.20
2017-11-19T00:22:13.816Z,11.07
2017-11-19T00:24:47.085Z,13.18
2017-11-19T00:27:16.160Z,13.50
2017-11-19T00:29:45.231Z,13.55
2017-11-19T00:32:16.288Z,15.87
2017-11-19T00:37:20.567Z,14.48
2017-11-19T00:39:56.809Z,14.70
2017-11-19T00:42:25.860Z,13.73
2017-11-19T00:44:54.950Z,14.10
2017-11-19T00:47:24.032Z,13.83
2017-11-19T00:49:53.906Z,15.32
2017-11-19T00:52:23.120Z,14.40
2017-11-19T00:54:53.106Z,16.77
2017-11-19T00:57:22.144Z,14.73
2017-11-19T00:59:52.925Z,17.40
2017-11-19T01:04:59.103Z,16.40
2017-11-19T01:07:28.136Z,15.60
2017-11-19T01:09:57.199Z,17.23
2017-11-19T01:12:26.456Z,15.93
2017-11-19T01:14:57.689Z,16.70
2017-11-19T01:17:26.716Z,16.23
2017-11-19T01:19:55.768Z,17.40
2017-11-19T01:22:30.697Z,17.50
2017-11-19T01:25:01.726Z,15.03
2017-11-19T01:27:31.395Z,19.75
2017-11-19T01:30:01.394Z,17.83
2017-11-19T01:32:30.453Z,18.50
2017-11-19T01:34:59.527Z,19.30
2017-11-19T01:37:28.563Z,19.40
2017-11-19T01:40:03.195Z,20.20
2017-11-19T01:42:32.240Z,18.90
2017-11-19T01:45:01.263Z,21.35
2017-11-19T01:47:30.327Z,22.10
2017-11-19T01:52:37.606Z,21.98
2017-11-19T01:55:06.649Z,19.23
2017-11-19T01:57:36.680Z,23.95
2017-11-19T02:00:05.728Z,24.10
2017-11-19T02:02:36.764Z,25.50
2017-11-19T02:07:45.993Z,23.30
2017-11-19T02:10:15.026Z,25.93
2017-11-19T02:12:47.668Z,23.62
2017-11-19T02:15:16.722Z,23.00
2017-11-19T02:17:50.383Z,23.38
2017-11-19T02:20:19.432Z,21.27
2017-11-19T02:22:56.355Z,24.87
2017-11-19T02:25:31.160Z,20.30
2017-11-19T02:28:13.191Z,21.27
2017-11-19T02:33:19.415Z,20.48
2017-11-19T02:35:52.141Z,18.63
2017-11-19T02:38:21.213Z,18.52
2017-11-19T02:40:50.240Z,21.37
2017-11-19T02:43:19.312Z,17.20
2017-11-19T02:45:48.365Z,20.88
2017-11-19T02:48:17.401Z,14.67
2017-11-19T02:53:24.287Z,19.75
2017-11-19T02:55:55.315Z,18.37
2017-11-19T02:58:24.338Z,16.33
2017-11-19T03:00:53.395Z,17.87
2017-11-19T03:03:22.435Z,19.92
2017-11-19T03:05:53.438Z,22.00
2017-11-19T03:08:22.518Z,17.98
2017-11-19T03:10:51.562Z,16.10
2017-11-19T03:13:21.528Z,18.80
2017-11-19T03:15:50.576Z,16.73
2017-11-19T03:18:19.631Z,17.93
2017-11-19T03:20:52.625Z,11.83
2017-11-19T03:23:21.661Z,14.50
2017-11-19T03:26:08.501Z,17.83
2017-11-19T03:28:37.576Z,13.20
2017-11-19T03:31:10.359Z,15.82
2017-11-19T03:33:41.345Z,14.95
2017-11-19T03:36:10.396Z,15.17
2017-11-19T03:41:14.650Z,15.38
2017-11-19T03:43:45.629Z,14.73
2017-11-19T03:46:14.711Z,16.20
2017-11-19T03:48:45.678Z,12.83
2017-11-19T03:51:14.729Z,14.20
2017-11-19T03:53:43.975Z,13.70
2017-11-19T03:56:13.020Z,15.63
2017-11-19T03:58:45.407Z,13.00
2017-11-19T04:01:14.463Z,14.90
2017-11-19T04:03:44.509Z,14.60
2017-11-19T04:06:13.539Z,11.93
2017-11-19T04:08:42.576Z,13.10
2017-11-19T04:11:11.620Z,11.37
2017-11-19T04:13:40.664Z,10.68
2017-11-19T04:16:15.395Z,12.30
2017-11-19T04:18:45.326Z,11.52
2017-11-19T04:21:37.847Z,8.03
2017-11-19T04:24:06.895Z,10.63
2017-11-19T04:26:35.929Z,9.23
2017-11-19T04:29:05.962Z,9.20
2017-11-19T04:34:10.229Z,8.98
2017-11-19T04:36:39.314Z,5.83
2017-11-19T04:39:08.349Z,7.68
2017-11-19T04:41:37.395Z,5.80
2017-11-19T04:44:15.707Z,7.32
2017-11-19T04:46:44.752Z,6.70
2017-11-19T04:49:14.716Z,7.85
2017-11-19T04:51:45.577Z,5.70
2017-11-19T04:54:14.626Z,7.72
2017-11-19T04:56:43.688Z,6.50
2017-11-19T04:59:12.719Z,5.77
2017-11-19T05:01:43.663Z,6.62
2017-11-19T05:04:13.727Z,6.57
2017-11-19T05:06:42.759Z,5.83
2017-11-19T05:09:11.819Z,6.78
2017-11-19T05:11:40.847Z,4.93
2017-11-19T05:14:16.992Z,5.45
2017-11-19T05:16:46.027Z,5.03
2017-11-19T05:19:15.134Z,5.72
2017-11-19T05:21:45.311Z,4.37
2017-11-19T05:24:19.305Z,5.22
2017-11-19T05:26:48.341Z,5.20
2017-11-19T05:31:52.595Z,6.37
2017-11-19T05:34:28.811Z,5.50
2017-11-19T05:36:57.843Z,5.73
2017-11-19T05:39:31.690Z,5.72
2017-11-19T05:42:00.747Z,4.63
2017-11-19T05:44:38.700Z,5.32
2017-11-19T05:49:43.874Z,6.05
2017-11-19T05:54:48.853Z,5.65
2017-11-19T05:57:17.935Z,5.50
2017-11-19T05:59:46.957Z,5.65
2017-11-19T06:02:17.967Z,3.90
2017-11-19T06:04:46.983Z,5.95
2017-11-19T06:09:53.195Z,5.65
2017-11-19T06:12:22.254Z,4.00
2017-11-19T06:14:51.284Z,5.90
2017-11-19T06:20:08.190Z,5.50
2017-11-19T06:22:39.257Z,5.60
2017-11-19T06:25:11.926Z,11.07
2017-11-19T06:27:40.958Z,5.57
2017-11-19T06:32:45.778Z,5.70
2017-11-19T06:35:20.598Z,5.20
2017-11-19T06:37:49.632Z,5.32
2017-11-19T06:40:18.670Z,4.50
2017-11-19T06:42:47.699Z,5.03
2017-11-19T06:45:16.723Z,4.80
2017-11-19T06:47:45.768Z,3.37
2017-11-19T06:50:14.810Z,5.30
2017-11-19T06:52:43.845Z,4.73
2017-11-19T06:55:12.960Z,5.28
2017-11-19T06:57:41.980Z,5.00
2017-11-19T07:00:11.982Z,4.00
2017-11-19T07:02:41.021Z,4.68
2017-11-19T07:05:13.579Z,4.60
2017-11-19T07:07:42.631Z,3.70
2017-11-19T07:10:12.675Z,3.97
2017-11-19T07:12:41.708Z,4.68
2017-11-19T07:15:12.744Z,3.10
2017-11-19T07:17:41.869Z,3.78
2017-11-19T07:20:16.830Z,4.50
2017-11-19T07:22:45.883Z,2.47
2017-11-19T07:25:15.884Z,4.43
2017-11-19T07:27:45.317Z,4.40
2017-11-19T07:32:52.542Z,3.10
2017-11-19T07:35:21.576Z,3.00
2017-11-19T07:37:50.658Z,2.80
2017-11-19T07:40:21.371Z,3.10
2017-11-19T07:45:32.715Z,3.55
2017-11-19T07:48:01.744Z,2.70
2017-11-19T07:50:30.798Z,2.97
2017-11-19T07:52:59.850Z,2.53
2017-11-19T07:55:32.226Z,2.90
2017-11-19T07:58:01.260Z,3.30
2017-11-19T08:00:37.978Z,3.00
2017-11-19T08:05:42.421Z,3.80
2017-11-19T08:08:11.429Z,3.20
2017-11-19T08:10:40.452Z,2.70
2017-11-19T08:13:14.616Z,4.10
2017-11-19T08:15:43.653Z,2.73
2017-11-19T08:18:30.297Z,3.83
2017-11-19T08:20:59.341Z,3.67
2017-11-19T08:23:29.457Z,4.18
2017-11-19T08:25:58.539Z,3.23
2017-11-19T08:28:33.285Z,5.07
2017-11-19T08:31:03.279Z,4.37
2017-11-19T08:36:07.589Z,6.22
2017-11-19T08:38:37.540Z,4.70
2017-11-19T08:41:06.567Z,5.30
2017-11-19T08:46:21.838Z,7.05
2017-11-19T08:48:50.882Z,4.33
2017-11-19T08:51:23.516Z,6.10
2017-11-19T08:53:52.611Z,5.10
2017-11-19T08:56:29.385Z,6.30
2017-11-19T08:58:58.524Z,5.87
2017-11-19T09:01:28.519Z,6.40
2017-11-19T09:03:57.583Z,6.57
2017-11-19T09:06:27.604Z,7.03
2017-11-19T09:08:56.660Z,9.75
2017-11-19T09:11:26.674Z,8.48
2017-11-19T09:13:55.703Z,6.30
2017-11-19T09:16:24.754Z,7.35
2017-11-19T09:18:53.965Z,8.55
2017-11-19T09:21:22.999Z,7.53
2017-11-19T09:23:52.041Z,9.15
2017-11-19T09:26:21.073Z,7.10
2017-11-19T09:28:50.137Z,9.10
2017-11-19T09:31:21.163Z,6.00
2017-11-19T09:33:51.105Z,6.40
2017-11-19T09:38:57.393Z,7.65
2017-11-19T09:41:30.176Z,7.68
2017-11-19T09:43:59.239Z,6.20
2017-11-19T09:46:28.270Z,7.35
2017-11-19T09:48:57.327Z,6.17
2017-11-19T09:51:26.364Z,7.45
2017-11-19T09:53:55.455Z,6.90
2017-11-19T09:56:24.482Z,8.37
2017-11-19T09:58:53.538Z,10.32
2017-11-19T10:03:57.872Z,8.70
2017-11-19T10:06:41.205Z,5.40
2017-11-19T10:09:10.336Z,11.75
2017-11-19T10:11:40.332Z,8.30
2017-11-19T10:16:49.388Z,8.48
2017-11-19T10:21:59.400Z,7.40
2017-11-19T10:30:14.169Z,7.53
2017-11-19T10:32:44.807Z,6.67
2017-11-19T10:35:27.539Z,5.80
2017-11-19T10:40:39.518Z,7.10
2017-11-19T10:43:28.223Z,7.13
2017-11-19T10:46:12.207Z,7.20
2017-11-19T10:48:41.292Z,4.57
2017-11-19T10:51:10.439Z,7.30
2017-11-19T10:53:39.549Z,4.97
2017-11-19T10:56:12.184Z,5.97
2017-11-19T10:58:41.255Z,6.47
2017-11-19T11:01:23.044Z,5.77
2017-11-19T11:06:33.086Z,5.20
2017-11-19T11:09:02.162Z,4.60
2017-11-19T11:11:36.809Z,4.43
2017-11-19T11:14:09.542Z,3.80
2017-11-19T11:16:38.592Z,3.50
2017-11-19T11:19:07.725Z,3.83
2017-11-19T11:21:36.770Z,3.03
2017-11-19T11:24:10.800Z,2.93
2017-11-19T11:26:39.858Z,3.00
2017-11-19T11:29:21.376Z,2.37
2017-11-19T11:31:52.357Z,3.40
2017-11-19T11:34:21.454Z,3.37
2017-11-19T11:36:50.493Z,3.20
2017-11-19T11:39:19.612Z,5.25
2017-11-19T11:44:23.827Z,3.80
2017-11-19T11:46:52.855Z,3.50
2017-11-19T11:49:22.999Z,6.20
2017-11-19T11:51:52.027Z,3.30
2017-11-19T11:54:21.064Z,4.10
2017-11-19T11:56:50.127Z,3.83
2017-11-19T11:59:19.169Z,6.10
2017-11-19T12:01:48.224Z,4.20
2017-11-19T12:04:17.303Z,4.43
2017-11-19T12:06:46.336Z,2.73
2017-11-19T12:09:15.420Z,3.20
2017-11-19T12:11:45.387Z,2.40
2017-11-19T12:14:24.384Z,2.97
2017-11-19T12:16:53.416Z,2.90
2017-11-19T12:19:44.881Z,4.00
2017-11-19T12:22:37.836Z,3.70
2017-11-19T12:25:17.983Z,6.60
2017-11-19T12:27:47.189Z,4.43
2017-11-19T12:30:16.218Z,4.20
2017-11-19T12:32:45.267Z,8.87
2017-11-19T12:35:14.333Z,4.73
2017-11-19T12:37:43.377Z,5.70
2017-11-19T12:40:50.708Z,4.80
2017-11-19T12:45:54.985Z,4.72
2017-11-19T12:48:27.749Z,4.83
2017-11-19T12:50:56.830Z,3.83
2017-11-19T12:53:25.857Z,3.60
2017-11-19T12:55:54.903Z,4.68
2017-11-19T12:58:23.975Z,4.07
2017-11-19T13:00:53.005Z,4.20
2017-11-19T13:03:22.064Z,3.77
2017-11-19T13:05:51.084Z,4.47
2017-11-19T13:08:30.520Z,5.90
2017-11-19T13:10:59.588Z,6.73
2017-11-19T13:13:45.835Z,5.15
2017-11-19T13:16:14.881Z,6.60
2017-11-19T13:18:44.862Z,4.53
2017-11-19T13:21:13.895Z,4.40
2017-11-19T13:23:45.599Z,4.43
2017-11-19T13:26:16.586Z,5.20
2017-11-19T13:28:45.617Z,3.63
2017-11-19T13:31:14.651Z,4.23
2017-11-19T13:33:43.684Z,4.07
2017-11-19T13:36:17.204Z,4.80
2017-11-19T13:39:12.811Z,5.63
2017-11-19T13:41:41.840Z,4.67
2017-11-19T13:44:10.935Z,3.63
2017-11-19T13:49:15.158Z,6.57
2017-11-19T13:51:46.152Z,6.63
2017-11-19T13:54:15.199Z,6.27
2017-11-19T13:57:12.346Z,4.10
2017-11-19T13:59:45.100Z,5.17
2017-11-19T14:02:14.136Z,5.40
2017-11-19T14:04:53.331Z,4.90
2017-11-19T14:07:22.596Z,4.50
2017-11-19T14:09:51.628Z,4.30
2017-11-19T14:12:20.671Z,4.10
2017-11-19T14:14:49.715Z,4.80
2017-11-19T14:17:18.761Z,3.77
2017-11-19T14:19:51.574Z,4.77
2017-11-19T14:22:20.614Z,4.63
2017-11-19T14:24:50.610Z,3.67
2017-11-19T14:27:19.671Z,3.30
2017-11-19T14:29:58.420Z,5.15
2017-11-19T14:32:27.487Z,3.73
2017-11-19T14:35:04.604Z,6.20
2017-11-19T14:37:41.389Z,3.63
2017-11-19T14:40:10.465Z,4.63
2017-11-19T14:42:39.502Z,5.27
2017-11-19T14:45:08.542Z,6.53
2017-11-19T14:47:38.578Z,4.33
2017-11-19T14:52:48.187Z,6.07
2017-11-19T14:55:17.300Z,5.73
2017-11-19T14:57:46.366Z,3.43
2017-11-19T15:00:15.462Z,7.50
2017-11-19T15:02:45.468Z,4.85
2017-11-19T15:05:14.507Z,3.63
2017-11-19T15:07:46.764Z,5.82
2017-11-19T15:10:15.843Z,5.73
2017-11-19T15:15:20.122Z,4.90
2017-11-19T15:20:27.371Z,6.72
2017-11-19T15:25:42.794Z,6.68
2017-11-19T15:28:12.972Z,5.90
2017-11-19T15:30:46.447Z,4.33
2017-11-19T15:33:15.557Z,5.40
2017-11-19T15:35:47.691Z,7.90
2017-11-19T15:38:16.727Z,4.07
2017-11-19T15:43:32.963Z,6.65
2017-11-19T15:46:02.066Z,5.93
2017-11-19T15:48:31.113Z,5.65
2017-11-19T15:51:03.923Z,7.73
2017-11-19T15:53:32.948Z,4.75
2017-11-19T15:58:43.310Z,5.03
2017-11-19T16:01:12.371Z,14.53
2017-11-19T16:06:16.629Z,13.50
2017-11-19T16:08:49.577Z,5.80
2017-11-19T16:11:18.612Z,20.85
2017-11-19T16:13:51.461Z,7.60
2017-11-19T16:16:20.545Z,12.30
2017-11-19T16:18:58.175Z,7.65
2017-11-19T16:21:27.217Z,6.10
2017-11-19T16:23:56.409Z,8.10
2017-11-19T16:26:25.491Z,7.28
2017-11-19T16:28:54.657Z,6.63
2017-11-19T16:31:23.731Z,8.75
2017-11-19T16:33:52.778Z,8.17
2017-11-19T16:36:21.789Z,6.00
2017-11-19T16:44:15.751Z,6.40
2017-11-19T16:46:48.731Z,6.75
2017-11-19T16:49:17.897Z,6.23
2017-11-19T16:51:46.944Z,7.10
2017-11-19T16:54:15.996Z,7.83
2017-11-19T16:56:45.035Z,9.40
2017-11-19T16:59:14.087Z,6.33
2017-11-19T17:01:46.740Z,6.70
2017-11-19T17:04:17.728Z,7.73
2017-11-19T17:06:46.775Z,6.45
2017-11-19T17:09:15.831Z,5.63
2017-11-19T17:11:44.875Z,8.75
2017-11-19T17:14:13.945Z,6.73
2017-11-19T17:16:42.999Z,7.80
2017-11-19T17:19:12.054Z,8.13
2017-11-19T17:21:42.161Z,7.28
2017-11-19T17:24:11.224Z,7.00
2017-11-19T17:26:40.280Z,7.83
2017-11-19T17:29:09.306Z,7.00
2017-11-19T17:31:38.366Z,8.30
2017-11-19T17:34:07.417Z,10.37
2017-11-19T17:36:40.484Z,14.95
2017-11-19T17:39:09.530Z,29.83
2017-11-19T17:41:38.571Z,66.37
2017-11-19T17:44:07.728Z,30.60
2017-11-19T17:46:36.769Z,27.30
2017-11-19T17:49:06.716Z,15.80
2017-11-19T17:51:37.774Z,26.13
2017-11-19T17:54:07.728Z,10.45
2017-11-19T18:02:07.646Z,6.80
2017-11-19T18:04:36.728Z,8.45
2017-11-19T18:07:06.690Z,8.60
2017-11-19T18:12:11.236Z,7.18
2017-11-19T18:14:40.953Z,6.47
2017-11-19T18:17:09.978Z,6.77
2017-11-19T18:19:39.972Z,5.93
2017-11-19T18:22:09.068Z,5.30
2017-11-19T18:24:38.119Z,6.90
2017-11-19T18:27:07.240Z,10.20
2017-11-19T18:29:36.316Z,5.30
2017-11-19T18:32:06.292Z,7.82
2017-11-19T18:34:37.306Z,9.03
2017-11-19T18:37:06.365Z,4.40
2017-11-19T18:39:35.424Z,4.60
2017-11-19T18:42:04.467Z,5.60
2017-11-19T18:44:34.867Z,4.80
2017-11-19T18:47:03.944Z,5.97
2017-11-19T18:52:12.500Z,7.35
2017-11-19T18:57:18.818Z,5.53
2017-11-19T18:59:48.803Z,6.30
2017-11-19T19:02:17.835Z,6.45
2017-11-19T19:04:48.840Z,8.52
2017-11-19T19:07:17.993Z,4.80
2017-11-19T19:09:47.087Z,4.82
2017-11-19T19:12:16.198Z,5.20
2017-11-19T19:14:49.127Z,7.78
2017-11-19T19:17:18.228Z,9.17
2017-11-19T19:19:52.871Z,5.20
2017-11-19T19:22:21.933Z,5.63
2017-11-19T19:24:55.335Z,4.80
2017-11-19T19:27:24.557Z,6.80
2017-11-19T19:29:55.530Z,5.62
2017-11-19T19:32:25.532Z,4.90
2017-11-19T19:34:54.559Z,5.40
2017-11-19T19:37:23.623Z,6.13
2017-11-19T19:39:54.801Z,4.78
2017-11-19T19:42:23.826Z,4.23
2017-11-19T19:44:56.045Z,8.13
2017-11-19T19:47:25.360Z,6.43
2017-11-19T19:49:54.386Z,5.10
2017-11-19T19:52:23.480Z,13.83
2017-11-19T19:54:56.518Z,12.80
2017-11-19T19:57:25.572Z,6.43
2017-11-19T19:59:54.698Z,7.50
2017-11-19T20:02:23.951Z,6.03
2017-11-19T20:07:33.292Z,5.68
2017-11-19T20:10:07.228Z,5.90
2017-11-19T20:12:40.190Z,9.75
2017-11-19T20:15:09.204Z,6.43
2017-11-19T20:20:16.409Z,6.72
2017-11-19T20:25:23.629Z,7.12
2017-11-19T20:30:31.706Z,6.80
2017-11-19T20:35:36.377Z,6.00
2017-11-19T20:38:05.418Z,4.00
2017-11-19T20:40:34.457Z,5.10
2017-11-19T20:43:05.434Z,6.63
2017-11-19T20:45:35.450Z,5.13
2017-11-19T20:48:04.532Z,9.98
2017-11-19T20:50:35.560Z,7.53
2017-11-19T20:53:06.642Z,5.87
2017-11-19T20:55:39.824Z,5.00
2017-11-19T20:58:08.973Z,5.13
2017-11-19T21:00:41.481Z,5.57
2017-11-19T21:03:10.612Z,9.53
2017-11-19T21:05:41.611Z,11.35
2017-11-19T21:08:10.653Z,11.33
2017-11-19T21:10:47.519Z,8.93
2017-11-19T21:13:16.676Z,10.10
2017-11-19T21:15:51.331Z,14.38
2017-11-19T21:18:20.402Z,11.30
2017-11-19T21:20:49.446Z,19.83
2017-11-19T21:23:18.522Z,16.70
2017-11-19T21:25:47.555Z,7.43
2017-11-19T21:28:18.928Z,8.18
2017-11-19T21:30:46.535Z,6.55
2017-11-19T21:33:15.653Z,5.23
2017-11-19T21:35:44.940Z,5.35
2017-11-19T21:38:14.026Z,6.13
2017-11-19T21:40:44.056Z,5.50
2017-11-19T21:43:13.135Z,4.57
2017-11-19T21:45:42.195Z,5.93
2017-11-19T21:48:11.231Z,6.03
2017-11-19T21:50:40.293Z,6.20
2017-11-19T21:53:09.311Z,4.85
2017-11-19T21:58:18.025Z,6.00
2017-11-19T22:00:48.011Z,4.23
2017-11-19T22:03:17.959Z,4.85
2017-11-19T22:05:46.986Z,4.00
2017-11-19T22:08:16.046Z,6.87
2017-11-19T22:10:45.116Z,5.07
2017-11-19T22:13:15.149Z,4.72
2017-11-19T22:15:44.238Z,5.93
2017-11-19T22:18:13.278Z,4.93
2017-11-19T22:20:42.342Z,6.85
2017-11-19T22:23:13.391Z,5.80
2017-11-19T22:25:42.456Z,6.23
2017-11-19T22:28:11.508Z,4.93
2017-11-19T22:30:40.511Z,5.97
2017-11-19T22:35:47.746Z,6.82
2017-11-19T22:40:55.995Z,7.62
2017-11-19T22:43:25.025Z,5.93
2017-11-19T22:45:54.081Z,5.00
2017-11-19T22:50:58.407Z,6.75
2017-11-19T22:53:28.364Z,5.00
2017-11-19T22:55:57.407Z,5.70
2017-11-19T22:58:28.338Z,4.33
2017-11-19T23:00:57.384Z,5.78
2017-11-19T23:03:31.624Z,6.73
2017-11-19T23:06:00.686Z,5.70
2017-11-19T23:08:37.769Z,6.10
2017-11-19T23:11:28.612Z,5.53
2017-11-19T23:13:57.652Z,6.70
2017-11-19T23:16:28.747Z,6.62
2017-11-19T23:18:57.782Z,6.20
2017-11-19T23:21:34.062Z,6.62
2017-11-19T23:24:08.739Z,8.17
2017-11-19T23:26:38.751Z,7.40
2017-11-19T23:29:07.807Z,5.53
2017-11-19T23:31:47.839Z,6.30
2017-11-19T23:34:16.931Z,11.97
2017-11-19T23:36:48.099Z,6.95
2017-11-19T23:39:17.168Z,5.97
2017-11-19T23:41:52.067Z,7.10
2017-11-19T23:44:21.099Z,5.60
2017-11-19T23:46:50.181Z,7.10
2017-11-19T23:49:19.216Z,7.30
2017-11-19T23:51:49.406Z,7.43
2017-11-19T23:54:18.411Z,7.97
2017-11-19T23:59:22.729Z,7.95
